Time;durP1;ratioP1;P1;durP2;ratioP2;P2;SDS_P1;SDS_P2;PMS_P1;PMS_P2;Temp;Humidity;BMP_temperature;BMP_pressure;BME280_temperature;BME280_humidity;BME280_pressure;Samples;Min_cycle;Max_cycle;Signal;HPM_P1;HPM_P2
2023/07/18 02:00:18;;;;;;;10.90;4.00;;;;;;;;;;5031212;27;20090;-78
2023/07/18 02:02:48;;;;;;;5.32;2.55;;;;;;;;;;4266061;33;20035;-77
2023/07/18 02:05:16;;;;;;;9.88;3.17;;;;;;;;;;4267283;33;20062;-79
2023/07/18 02:07:42;;;;;;;8.20;3.10;;;;;;;;;;4265866;33;20057;-80
2023/07/18 02:10:08;;;;;;;5.10;2.35;;;;;;;;;;4267750;33;20046;-78
2023/07/18 02:12:34;;;;;;;2.75;2.58;;;;;;;;;;4267429;33;20060;-79
2023/07/18 02:15:01;;;;;;;3.30;2.58;;;;;;;;;;4222399;34;20058;-79
2023/07/18 02:17:28;;;;;;;11.40;3.58;;;;;;;;;;4223332;34;20055;-77
2023/07/18 02:19:53;;;;;;;6.15;2.83;;;;;;;;;;4221116;34;20078;-77
2023/07/18 02:22:21;;;;;;;4.37;3.05;;;;;;;;;;4223910;34;21021;-79
2023/07/18 02:24:48;;;;;;;3.97;2.95;;;;;;;;;;4223874;34;20038;-77
2023/07/18 02:27:14;;;;;;;3.05;2.75;;;;;;;;;;4223001;34;20058;-76
2023/07/18 02:29:40;;;;;;;8.93;2.80;;;;;;;;;;4221247;34;20031;-82
2023/07/18 02:32:07;;;;;;;8.60;3.28;;;;;;;;;;4222535;34;20059;-78
2023/07/18 02:34:33;;;;;;;8.13;3.37;;;;;;;;;;4222784;34;20047;-77
2023/07/18 02:36:59;;;;;;;9.27;3.72;;;;;;;;;;4223683;34;20091;-77
2023/07/18 02:39:30;;;;;;;5.60;3.28;;;;;;;;;;4236901;33;20121;-77
2023/07/18 02:41:56;;;;;;;7.78;3.62;;;;;;;;;;4234493;33;20051;-77
2023/07/18 02:44:22;;;;;;;5.70;2.75;;;;;;;;;;4237460;33;20493;-77
2023/07/18 02:46:48;;;;;;;7.97;2.70;;;;;;;;;;4226401;33;20051;-78
2023/07/18 02:49:14;;;;;;;7.15;4.70;;;;;;;;;;4223637;33;20454;-78
2023/07/18 02:51:40;;;;;;;3.53;2.50;;;;;;;;;;4221805;33;20055;-80
2023/07/18 02:54:07;;;;;;;3.03;2.42;;;;;;;;;;4221822;33;20068;-77
2023/07/18 02:56:34;;;;;;;8.32;3.10;;;;;;;;;;4222149;33;20065;-76
2023/07/18 02:59:01;;;;;;;3.45;2.28;;;;;;;;;;4223179;33;20039;-78
2023/07/18 03:01:28;;;;;;;3.92;1.85;;;;;;;;;;4244633;33;20050;-78
2023/07/18 03:03:55;;;;;;;2.22;2.03;;;;;;;;;;4248391;33;20061;-82
2023/07/18 03:06:25;;;;;;;3.80;2.65;;;;;;;;;;4228423;33;20062;-78
2023/07/18 03:08:51;;;;;;;6.10;2.10;;;;;;;;;;4223769;34;20055;-78
2023/07/18 03:11:18;;;;;;;3.40;1.92;;;;;;;;;;4234009;33;20068;-77
2023/07/18 03:13:44;;;;;;;4.12;2.90;;;;;;;;;;4237631;33;20038;-78
2023/07/18 03:16:17;;;;;;;2.33;1.85;;;;;;;;;;4235967;33;20186;-77
2023/07/18 03:18:43;;;;;;;2.05;1.80;;;;;;;;;;4236888;33;20178;-78
2023/07/18 03:21:09;;;;;;;7.32;2.90;;;;;;;;;;4208666;34;20055;-79
2023/07/18 03:23:35;;;;;;;4.53;1.90;;;;;;;;;;4208158;34;20047;-82
2023/07/18 03:26:01;;;;;;;3.55;2.05;;;;;;;;;;4213834;34;20055;-78
2023/07/18 03:28:28;;;;;;;2.95;2.62;;;;;;;;;;4223100;34;20078;-79
2023/07/18 03:30:55;;;;;;;2.22;2.03;;;;;;;;;;4222469;34;20072;-78
2023/07/18 03:33:21;;;;;;;6.18;2.17;;;;;;;;;;4234983;33;20385;-77
2023/07/18 03:35:47;;;;;;;6.22;1.60;;;;;;;;;;4236655;33;20072;-78
2023/07/18 03:38:13;;;;;;;4.37;2.08;;;;;;;;;;4234296;33;20385;-78
2023/07/18 03:40:40;;;;;;;2.50;1.92;;;;;;;;;;4235978;33;20119;-77
2023/07/18 03:43:06;;;;;;;6.43;1.75;;;;;;;;;;4207788;34;20453;-78
2023/07/18 03:45:33;;;;;;;3.28;2.03;;;;;;;;;;4209400;34;20188;-77
2023/07/18 03:47:59;;;;;;;1.60;1.60;;;;;;;;;;4208292;34;20117;-78
2023/07/18 03:50:25;;;;;;;7.62;2.28;;;;;;;;;;4204736;34;20756;-77
2023/07/18 03:52:51;;;;;;;3.78;2.28;;;;;;;;;;4208929;34;20040;-79
2023/07/18 03:55:17;;;;;;;2.90;2.00;;;;;;;;;;4209581;34;20051;-76
2023/07/18 03:57:43;;;;;;;5.37;2.60;;;;;;;;;;4208840;34;20070;-77
2023/07/18 04:00:14;;;;;;;2.95;2.05;;;;;;;;;;4209440;34;20120;-77
2023/07/18 04:02:40;;;;;;;2.25;2.05;;;;;;;;;;4218427;34;20061;-78
2023/07/18 04:05:07;;;;;;;2.05;1.92;;;;;;;;;;4221690;34;20392;-79
2023/07/18 04:07:33;;;;;;;2.72;2.22;;;;;;;;;;4207712;34;20031;-79
2023/07/18 04:09:59;;;;;;;7.20;2.75;;;;;;;;;;4205491;34;20094;-81
2023/07/18 04:12:26;;;;;;;4.45;2.55;;;;;;;;;;4208764;34;20058;-78
2023/07/18 04:14:52;;;;;;;4.35;2.10;;;;;;;;;;4230074;33;20102;-78
2023/07/18 04:17:18;;;;;;;3.87;2.78;;;;;;;;;;4236391;33;20047;-78
2023/07/18 04:19:44;;;;;;;4.68;2.12;;;;;;;;;;4235665;33;20047;-76
2023/07/18 04:22:10;;;;;;;2.67;1.90;;;;;;;;;;4248769;33;20077;-78
2023/07/18 04:24:36;;;;;;;5.75;2.50;;;;;;;;;;4249600;33;20148;-78
2023/07/18 04:27:03;;;;;;;7.53;2.12;;;;;;;;;;4249718;33;20523;-77
2023/07/18 04:29:29;;;;;;;3.65;2.05;;;;;;;;;;4214721;34;20385;-76
2023/07/18 04:31:55;;;;;;;5.15;2.40;;;;;;;;;;4215618;34;20039;-78
2023/07/18 04:34:21;;;;;;;4.32;2.62;;;;;;;;;;4216341;34;20342;-76
2023/07/18 04:36:47;;;;;;;7.37;2.53;;;;;;;;;;4221560;34;20130;-77
2023/07/18 04:39:14;;;;;;;4.15;2.83;;;;;;;;;;4223338;34;20051;-77
2023/07/18 04:41:40;;;;;;;3.85;3.17;;;;;;;;;;4223933;34;20418;-76
2023/07/18 04:44:07;;;;;;;7.50;2.37;;;;;;;;;;4223293;33;20054;-78
2023/07/18 04:46:32;;;;;;;8.70;2.95;;;;;;;;;;4238176;33;20076;-76
2023/07/18 04:48:59;;;;;;;3.00;2.70;;;;;;;;;;4237749;33;20043;-78
2023/07/18 04:51:25;;;;;;;5.35;2.90;;;;;;;;;;4216753;34;20481;-76
2023/07/18 04:53:51;;;;;;;10.20;3.20;;;;;;;;;;4216589;34;20048;-76
2023/07/18 04:56:18;;;;;;;4.65;3.50;;;;;;;;;;4214116;34;20517;-78
2023/07/18 04:58:44;;;;;;;5.50;3.10;;;;;;;;;;4216558;34;20528;-77
2023/07/18 05:01:10;;;;;;;5.78;2.97;;;;;;;;;;4239800;33;20050;-76
2023/07/18 05:03:36;;;;;;;5.62;3.20;;;;;;;;;;4240326;33;20052;-76
2023/07/18 05:06:02;;;;;;;12.90;3.60;;;;;;;;;;4238372;33;20072;-76
2023/07/18 05:08:29;;;;;;;8.75;4.28;;;;;;;;;;4242555;33;20066;-76
2023/07/18 05:11:00;;;;;;;18.05;4.00;;;;;;;;;;4243619;33;20148;-77
2023/07/18 05:13:26;;;;;;;8.45;3.92;;;;;;;;;;4245479;33;20467;-76
2023/07/18 05:15:52;;;;;;;6.40;3.47;;;;;;;;;;4246017;33;20060;-75
2023/07/18 05:18:19;;;;;;;5.45;3.22;;;;;;;;;;4243043;33;20072;-78
2023/07/18 05:20:44;;;;;;;8.88;3.90;;;;;;;;;;4201289;34;20391;-76
2023/07/18 05:23:11;;;;;;;5.80;3.35;;;;;;;;;;4189164;34;20147;-77
2023/07/18 05:25:37;;;;;;;10.25;3.25;;;;;;;;;;4189861;34;20106;-78
2023/07/18 05:28:04;;;;;;;5.93;4.28;;;;;;;;;;4192605;34;20073;-76
2023/07/18 05:30:30;;;;;;;6.10;3.62;;;;;;;;;;4218499;34;20069;-76
2023/07/18 05:32:57;;;;;;;5.60;3.35;;;;;;;;;;4201905;34;20102;-75
2023/07/18 05:35:23;;;;;;;6.05;4.10;;;;;;;;;;4202858;34;20082;-75
2023/07/18 05:37:49;;;;;;;5.55;4.07;;;;;;;;;;4203419;34;20065;-77
2023/07/18 05:40:16;;;;;;;11.45;4.82;;;;;;;;;;4205073;34;20081;-77
2023/07/18 05:42:42;;;;;;;4.07;3.50;;;;;;;;;;4205243;34;20066;-77
2023/07/18 05:45:09;;;;;;;8.00;3.00;;;;;;;;;;4189670;34;20358;-77
2023/07/18 05:47:36;;;;;;;5.87;3.83;;;;;;;;;;4191098;34;20060;-75
2023/07/18 05:50:02;;;;;;;6.72;4.22;;;;;;;;;;4163174;34;20049;-77
2023/07/18 05:52:28;;;;;;;11.70;4.03;;;;;;;;;;4171662;34;20059;-77
2023/07/18 05:54:55;;;;;;;6.25;3.00;;;;;;;;;;4172689;34;20062;-79
2023/07/18 05:57:21;;;;;;;5.55;3.05;;;;;;;;;;4172736;34;20323;-77
2023/07/18 05:59:47;;;;;;;3.62;2.97;;;;;;;;;;4174697;34;20058;-77
2023/07/18 06:02:14;;;;;;;4.95;2.65;;;;;;;;;;4184626;34;20069;-77
2023/07/18 06:04:40;;;;;;;7.05;3.17;;;;;;;;;;4208984;34;20026;-79
2023/07/18 06:07:07;;;;;;;7.75;4.82;;;;;;;;;;4235400;33;20077;-77
2023/07/18 06:09:33;;;;;;;8.50;3.45;;;;;;;;;;4214856;34;20076;-76
2023/07/18 06:11:59;;;;;;;10.52;3.25;;;;;;;;;;4215525;34;20094;-78
2023/07/18 06:14:26;;;;;;;3.50;2.35;;;;;;;;;;4209540;34;20035;-75
2023/07/18 06:16:52;;;;;;;4.35;3.17;;;;;;;;;;4195974;34;20137;-77
2023/07/18 06:19:19;;;;;;;3.95;2.20;;;;;;;;;;4195566;34;20047;-75
2023/07/18 06:21:48;;;;;;;3.20;1.90;;;;;;;;;;4227738;33;20062;-76
2023/07/18 06:24:16;;;;;;;13.73;2.70;;;;;;;;;;4235975;33;20049;-77
2023/07/18 06:26:48;;;;;;;3.75;2.62;;;;;;;;;;4235353;33;20076;-78
2023/07/18 06:29:18;;;;;;;2.47;1.83;;;;;;;;;;4237004;33;21125;-77
2023/07/18 06:31:51;;;;;;;3.72;2.05;;;;;;;;;;4239925;33;20054;-77
2023/07/18 06:34:17;;;;;;;6.05;1.90;;;;;;;;;;4214739;34;20076;-76
2023/07/18 06:36:45;;;;;;;2.55;1.60;;;;;;;;;;4210617;34;20830;-77
2023/07/18 06:39:12;;;;;;;1.42;1.33;;;;;;;;;;4215075;34;20069;-75
2023/07/18 06:41:38;;;;;;;2.30;1.83;;;;;;;;;;4242588;33;20241;-76
2023/07/18 06:44:07;;;;;;;5.80;1.52;;;;;;;;;;4242762;33;20067;-75
2023/07/18 06:46:34;;;;;;;6.10;2.08;;;;;;;;;;4242302;33;20092;-78
2023/07/18 06:49:00;;;;;;;11.25;1.87;;;;;;;;;;4243195;33;20112;-75
2023/07/18 06:51:27;;;;;;;7.57;2.03;;;;;;;;;;4229010;33;20047;-76
2023/07/18 06:53:54;;;;;;;3.35;1.40;;;;;;;;;;4229289;33;20120;-75
2023/07/18 06:56:26;;;;;;;8.15;1.65;;;;;;;;;;4228366;33;20051;-80
2023/07/18 06:58:52;;;;;;;17.85;10.07;;;;;;;;;;4229204;33;20065;-77
2023/07/18 07:01:22;;;;;;;16.37;9.70;;;;;;;;;;4229838;33;20047;-77
2023/07/18 07:03:49;;;;;;;23.08;11.27;;;;;;;;;;4216535;33;20191;-76
2023/07/18 07:06:17;;;;;;;15.43;8.27;;;;;;;;;;4252055;33;20079;-75
2023/07/18 07:08:44;;;;;;;11.38;7.10;;;;;;;;;;4255561;33;20424;-77
2023/07/18 07:11:11;;;;;;;42.75;24.92;;;;;;;;;;4212303;34;20813;-77
2023/07/18 07:13:37;;;;;;;3.75;2.78;;;;;;;;;;4215134;33;20031;-75
2023/07/18 07:16:10;;;;;;;4.07;1.50;;;;;;;;;;4208160;34;20092;-77
2023/07/18 07:18:36;;;;;;;7.57;2.25;;;;;;;;;;4206423;34;20039;-80
2023/07/18 07:21:04;;;;;;;3.22;2.12;;;;;;;;;;4193792;34;20111;-77
2023/07/18 07:23:30;;;;;;;4.82;2.92;;;;;;;;;;4216085;33;20074;-77
2023/07/18 07:25:58;;;;;;;3.17;1.60;;;;;;;;;;4209474;34;20417;-77
2023/07/18 07:28:24;;;;;;;1.77;1.30;;;;;;;;;;4220427;34;20401;-78
2023/07/18 07:30:51;;;;;;;2.80;1.30;;;;;;;;;;4219831;34;20516;-76
2023/07/18 07:33:17;;;;;;;2.08;1.52;;;;;;;;;;4222153;34;20129;-75
2023/07/18 07:35:43;;;;;;;3.53;1.50;;;;;;;;;;4195117;34;20052;-75
2023/07/18 07:38:09;;;;;;;1.48;1.37;;;;;;;;;;4195305;34;20094;-75
2023/07/18 07:40:36;;;;;;;1.05;1.00;;;;;;;;;;4192796;34;20059;-76
2023/07/18 07:43:02;;;;;;;1.25;1.15;;;;;;;;;;4194149;34;20455;-75
2023/07/18 07:45:28;;;;;;;1.92;1.83;;;;;;;;;;4194971;34;20040;-75
2023/07/18 07:47:54;;;;;;;2.40;1.67;;;;;;;;;;4199463;34;20035;-75
2023/07/18 07:50:21;;;;;;;1.48;1.37;;;;;;;;;;4220914;34;20062;-76
2023/07/18 07:52:47;;;;;;;1.60;1.10;;;;;;;;;;4222193;33;20042;-77
2023/07/18 07:55:13;;;;;;;3.53;1.08;;;;;;;;;;4193717;34;20077;-77
2023/07/18 07:57:39;;;;;;;1.95;1.15;;;;;;;;;;4194215;34;20031;-76
2023/07/18 08:00:07;;;;;;;4.07;2.78;;;;;;;;;;4193837;34;20055;-76
2023/07/18 08:02:33;;;;;;;1.02;0.93;;;;;;;;;;4193294;34;20065;-75
2023/07/18 08:04:59;;;;;;;6.15;1.65;;;;;;;;;;4193000;34;20139;-76
2023/07/18 08:07:25;;;;;;;3.47;1.33;;;;;;;;;;4208135;34;20419;-77
2023/07/18 08:09:52;;;;;;;3.17;1.50;;;;;;;;;;4211913;34;20069;-77
2023/07/18 08:12:20;;;;;;;8.23;1.45;;;;;;;;;;4211133;33;20085;-76
2023/07/18 08:14:48;;;;;;;1.33;1.15;;;;;;;;;;4242531;33;20084;-79
2023/07/18 08:17:14;;;;;;;1.30;1.30;;;;;;;;;;4239373;33;20086;-76
2023/07/18 08:19:41;;;;;;;2.75;1.25;;;;;;;;;;4236645;33;20043;-75
2023/07/18 08:22:08;;;;;;;1.27;1.17;;;;;;;;;;4237651;33;20042;-76
2023/07/18 08:24:35;;;;;;;3.85;1.65;;;;;;;;;;4238116;33;20156;-77
2023/07/18 08:27:01;;;;;;;2.58;1.67;;;;;;;;;;4254730;33;20403;-75
2023/07/18 08:29:30;;;;;;;1.25;1.12;;;;;;;;;;4268137;33;20672;-75
2023/07/18 08:31:58;;;;;;;3.47;1.87;;;;;;;;;;4269343;33;20063;-75
2023/07/18 08:34:25;;;;;;;1.77;1.37;;;;;;;;;;4255552;33;20060;-75
2023/07/18 08:36:51;;;;;;;4.25;1.30;;;;;;;;;;4268515;33;20520;-75
2023/07/18 08:39:17;;;;;;;1.35;1.25;;;;;;;;;;4266686;33;20046;-75
2023/07/18 08:41:44;;;;;;;7.50;1.92;;;;;;;;;;4273224;33;20639;-78
2023/07/18 08:44:15;;;;;;;2.50;2.15;;;;;;;;;;4282689;33;20050;-77
2023/07/18 08:46:47;;;;;;;3.25;1.00;;;;;;;;;;4253743;33;20111;-75
2023/07/18 08:49:16;;;;;;;2.40;1.67;;;;;;;;;;4252188;33;20046;-75
2023/07/18 08:51:42;;;;;;;3.40;1.33;;;;;;;;;;4252128;33;20042;-75
2023/07/18 08:54:09;;;;;;;3.05;1.45;;;;;;;;;;4261065;33;20064;-77
2023/07/18 08:56:36;;;;;;;1.92;1.25;;;;;;;;;;4265909;33;20072;-77
2023/07/18 08:59:02;;;;;;;4.97;1.45;;;;;;;;;;4263323;33;20069;-76
2023/07/18 09:01:29;;;;;;;3.95;1.45;;;;;;;;;;4265342;33;20057;-75
2023/07/18 09:03:55;;;;;;;3.87;1.27;;;;;;;;;;4263918;33;20050;-75
2023/07/18 09:06:23;;;;;;;5.20;1.55;;;;;;;;;;4250915;33;20477;-77
2023/07/18 09:08:50;;;;;;;2.62;1.73;;;;;;;;;;4249478;33;20068;-76
2023/07/18 09:11:18;;;;;;;1.92;1.83;;;;;;;;;;4249212;33;20035;-75
2023/07/18 09:13:44;;;;;;;1.77;1.60;;;;;;;;;;4240602;33;20070;-77
2023/07/18 09:16:14;;;;;;;7.72;2.22;;;;;;;;;;4244992;33;20522;-78
2023/07/18 09:18:50;;;;;;;1.77;1.67;;;;;;;;;;4247970;33;20085;-78
2023/07/18 09:21:17;;;;;;;2.10;1.80;;;;;;;;;;4236573;33;20058;-78
2023/07/18 09:23:46;;;;;;;4.70;1.80;;;;;;;;;;4230707;33;20046;-78
2023/07/18 09:26:16;;;;;;;1.58;1.30;;;;;;;;;;4224871;33;20050;-78
2023/07/18 09:28:42;;;;;;;8.18;1.27;;;;;;;;;;4209051;34;20059;-77
2023/07/18 09:31:19;;;;;;;1.48;1.27;;;;;;;;;;4193077;34;20084;-77
2023/07/18 09:33:45;;;;;;;2.42;1.75;;;;;;;;;;4189586;34;20043;-77
2023/07/18 09:36:19;;;;;;;1.90;1.40;;;;;;;;;;4147371;34;20056;-77
2023/07/18 09:38:49;;;;;;;1.98;1.33;;;;;;;;;;4185271;34;20062;-81
2023/07/18 09:41:19;;;;;;;2.50;1.45;;;;;;;;;;4181479;34;20540;-82
2023/07/18 09:43:46;;;;;;;8.32;1.87;;;;;;;;;;4182670;34;20452;-82
2023/07/18 09:46:13;;;;;;;2.15;1.12;;;;;;;;;;4182706;34;20048;-81
2023/07/18 09:48:40;;;;;;;2.95;1.42;;;;;;;;;;4182457;34;20044;-81
2023/07/18 09:51:08;;;;;;;6.05;1.40;;;;;;;;;;4180097;34;20070;-80
2023/07/18 09:53:35;;;;;;;5.50;1.10;;;;;;;;;;4182765;34;20078;-81
2023/07/18 09:56:02;;;;;;;1.95;1.10;;;;;;;;;;4194845;34;20048;-81
2023/07/18 09:58:29;;;;;;;2.37;1.48;;;;;;;;;;4195008;34;20518;-80
2023/07/18 10:00:56;;;;;;;2.03;0.82;;;;;;;;;;4192767;34;20044;-83
2023/07/18 10:03:22;;;;;;;7.87;1.35;;;;;;;;;;4186575;34;20965;-80
2023/07/18 10:05:49;;;;;;;4.37;1.00;;;;;;;;;;4187971;34;20070;-81
2023/07/18 10:08:15;;;;;;;5.82;1.48;;;;;;;;;;4219852;33;20047;-82
2023/07/18 10:10:58;;;;;;;2.42;2.17;;;;;;;;;;4227341;33;20080;-76
2023/07/18 10:13:24;;;;;;;36.00;18.62;;;;;;;;;;4228567;33;20060;-78
2023/07/18 10:16:10;;;;;;;7.87;5.10;;;;;;;;;;4215345;34;20082;-78
2023/07/18 10:18:49;;;;;;;22.08;11.82;;;;;;;;;;4211188;34;20192;-77
2023/07/18 10:21:30;;;;;;;3.45;2.00;;;;;;;;;;4212425;34;20036;-78
2023/07/18 10:23:57;;;;;;;2.17;2.03;;;;;;;;;;4212880;34;20072;-77
2023/07/18 10:26:30;;;;;;;10.75;4.82;;;;;;;;;;4184440;34;20044;-76
2023/07/18 10:29:01;;;;;;;12.20;6.55;;;;;;;;;;4185449;34;20048;-77
2023/07/18 10:31:35;;;;;;;8.55;5.35;;;;;;;;;;4194599;34;20213;-77
2023/07/18 10:34:27;;;;;;;5.10;3.30;;;;;;;;;;4192052;34;20083;-79
2023/07/18 10:36:59;;;;;;;3.22;1.42;;;;;;;;;;4179960;34;20573;-77
2023/07/18 10:39:38;;;;;;;1.37;1.25;;;;;;;;;;4181974;34;20052;-78
2023/07/18 10:42:09;;;;;;;1.00;1.00;;;;;;;;;;4192428;34;20087;-77
2023/07/18 10:44:38;;;;;;;1.77;1.15;;;;;;;;;;4170204;34;20040;-77
2023/07/18 10:47:17;;;;;;;1.00;1.00;;;;;;;;;;4177330;34;20412;-76
2023/07/18 10:49:50;;;;;;;1.00;1.00;;;;;;;;;;4176245;34;20580;-75
2023/07/18 10:52:18;;;;;;;1.40;1.12;;;;;;;;;;4187003;34;20070;-75
2023/07/18 10:54:45;;;;;;;6.37;0.90;;;;;;;;;;4188604;34;20051;-78
2023/07/18 10:57:13;;;;;;;7.47;1.52;;;;;;;;;;4190488;34;20039;-81
2023/07/18 10:59:44;;;;;;;1.80;1.70;;;;;;;;;;4165547;34;20101;-77
2023/07/18 11:02:11;;;;;;;1.12;1.02;;;;;;;;;;4311363;28;20399;-77
2023/07/18 11:04:38;;;;;;;1.50;1.20;;;;;;;;;;4175142;34;20048;-77
2023/07/18 11:07:04;;;;;;;1.52;1.20;;;;;;;;;;4179982;34;20044;-77
2023/07/18 11:09:31;;;;;;;3.20;0.90;;;;;;;;;;4165887;34;20052;-77
2023/07/18 11:12:00;;;;;;;2.58;1.35;;;;;;;;;;4175560;34;20419;-77
2023/07/18 11:14:36;;;;;;;1.98;1.00;;;;;;;;;;4178824;34;20067;-83
2023/07/18 11:17:08;;;;;;;1.00;1.00;;;;;;;;;;4180554;34;20320;-77
2023/07/18 11:19:35;;;;;;;4.10;1.05;;;;;;;;;;4183077;34;20069;-77
2023/07/18 11:22:01;;;;;;;1.92;1.08;;;;;;;;;;4182692;34;20094;-77
2023/07/18 11:24:28;;;;;;;6.05;1.60;;;;;;;;;;4165097;34;20078;-82
2023/07/18 11:27:14;;;;;;;2.87;2.50;;;;;;;;;;4166720;34;20032;-77
2023/07/18 11:30:03;;;;;;;1.92;1.33;;;;;;;;;;4171477;34;20055;-77
2023/07/18 11:32:30;;;;;;;3.30;1.08;;;;;;;;;;4208070;34;20370;-78
2023/07/18 11:34:58;;;;;;;1.25;1.15;;;;;;;;;;4207549;34;20058;-78
2023/07/18 11:37:24;;;;;;;1.75;0.93;;;;;;;;;;4207609;34;20051;-77
2023/07/18 11:39:53;;;;;;;1.30;1.00;;;;;;;;;;4211626;34;20084;-75
2023/07/18 11:42:20;;;;;;;1.45;1.25;;;;;;;;;;4222462;34;20054;-77
2023/07/18 11:44:47;;;;;;;1.20;1.20;;;;;;;;;;4213378;34;20341;-77
2023/07/18 11:47:15;;;;;;;0.93;0.90;;;;;;;;;;4224648;34;20062;-77
2023/07/18 11:49:44;;;;;;;1.27;1.12;;;;;;;;;;4224788;34;20077;-79
2023/07/18 11:52:11;;;;;;;1.23;1.15;;;;;;;;;;4209651;34;20043;-79
2023/07/18 11:54:37;;;;;;;2.87;1.40;;;;;;;;;;4214678;33;20052;-79
2023/07/18 11:57:04;;;;;;;1.02;0.80;;;;;;;;;;4238877;33;20046;-80
2023/07/18 11:59:31;;;;;;;6.50;1.10;;;;;;;;;;4211814;34;20104;-79
2023/07/18 12:01:57;;;;;;;3.60;0.98;;;;;;;;;;4171314;34;20040;-78
2023/07/18 12:04:23;;;;;;;1.48;1.35;;;;;;;;;;4156486;34;20044;-82
2023/07/18 12:06:50;;;;;;;1.00;1.00;;;;;;;;;;4159781;34;20102;-79
2023/07/18 12:09:17;;;;;;;7.43;2.22;;;;;;;;;;4160976;34;20063;-78
2023/07/18 12:11:44;;;;;;;1.12;1.10;;;;;;;;;;4145247;34;20420;-78
2023/07/18 12:14:10;;;;;;;3.05;1.80;;;;;;;;;;4149636;34;20064;-80
2023/07/18 12:16:37;;;;;;;8.98;1.20;;;;;;;;;;4134163;34;20041;-82
2023/07/18 12:19:03;;;;;;;3.08;1.30;;;;;;;;;;4131761;34;20038;-79
2023/07/18 12:21:29;;;;;;;1.90;1.37;;;;;;;;;;4134009;34;20081;-79
2023/07/18 12:23:56;;;;;;;1.37;1.27;;;;;;;;;;4143295;34;20061;-79
2023/07/18 12:26:22;;;;;;;1.40;1.30;;;;;;;;;;4143274;34;20086;-79
2023/07/18 12:28:48;;;;;;;1.35;1.12;;;;;;;;;;4128383;34;20088;-78
2023/07/18 12:31:15;;;;;;;1.00;1.00;;;;;;;;;;4128163;34;20075;-78
2023/07/18 12:33:42;;;;;;;2.40;1.70;;;;;;;;;;4151867;34;20393;-79
2023/07/18 12:38:43;;;;;;;1.67;1.25;;;;;;;;;;4154443;34;20044;-82
2023/07/18 12:41:09;;;;;;;3.65;1.33;;;;;;;;;;4154245;34;20048;-79
2023/07/18 12:43:36;;;;;;;2.28;1.35;;;;;;;;;;4155852;34;20057;-79
2023/07/18 12:46:02;;;;;;;1.90;1.25;;;;;;;;;;4155186;34;20115;-79
2023/07/18 12:48:28;;;;;;;1.45;1.12;;;;;;;;;;4148967;34;20205;-79
2023/07/18 12:50:54;;;;;;;2.53;1.00;;;;;;;;;;4182406;34;20107;-81
2023/07/18 12:53:20;;;;;;;7.85;1.27;;;;;;;;;;4181235;34;20051;-78
2023/07/18 12:55:47;;;;;;;2.00;1.10;;;;;;;;;;4154591;34;20382;-78
2023/07/18 12:58:13;;;;;;;1.85;1.25;;;;;;;;;;4154724;34;20057;-81
2023/07/18 13:00:45;;;;;;;2.05;1.55;;;;;;;;;;4155191;34;20394;-78
2023/07/18 13:03:12;;;;;;;2.00;1.10;;;;;;;;;;4153824;34;20459;-81
2023/07/18 13:05:38;;;;;;;1.45;1.40;;;;;;;;;;4178162;34;20080;-79
2023/07/18 13:08:05;;;;;;;1.48;1.17;;;;;;;;;;4181007;34;20445;-77
2023/07/18 13:10:31;;;;;;;1.20;1.20;;;;;;;;;;4181361;34;20043;-80
2023/07/18 13:12:57;;;;;;;2.00;1.48;;;;;;;;;;4174444;34;20157;-80
2023/07/18 13:15:23;;;;;;;3.20;1.30;;;;;;;;;;4167376;34;20504;-79
2023/07/18 13:17:50;;;;;;;1.42;1.12;;;;;;;;;;4167091;34;20451;-78
2023/07/18 13:20:18;;;;;;;1.25;1.25;;;;;;;;;;4168878;34;20205;-78
2023/07/18 13:22:44;;;;;;;6.35;1.23;;;;;;;;;;4168253;34;20078;-78
2023/07/18 13:25:12;;;;;;;1.23;1.10;;;;;;;;;;4182490;34;20471;-76
2023/07/18 13:27:38;;;;;;;2.83;1.23;;;;;;;;;;4151416;34;20066;-75
2023/07/18 13:30:04;;;;;;;2.12;1.20;;;;;;;;;;4153033;34;20261;-77
2023/07/18 13:32:31;;;;;;;1.45;1.35;;;;;;;;;;4143861;34;20080;-77
2023/07/18 13:34:57;;;;;;;2.03;1.20;;;;;;;;;;4154076;34;20442;-77
2023/07/18 13:37:29;;;;;;;1.23;1.23;;;;;;;;;;4152549;34;20441;-80
2023/07/18 13:39:55;;;;;;;1.58;1.08;;;;;;;;;;4154215;34;20571;-80
2023/07/18 13:42:22;;;;;;;3.92;1.20;;;;;;;;;;4152941;34;20079;-80
2023/07/18 13:44:50;;;;;;;9.65;1.30;;;;;;;;;;4165312;34;20032;-79
2023/07/18 13:47:17;;;;;;;2.10;1.15;;;;;;;;;;4165816;34;20056;-81
2023/07/18 13:49:43;;;;;;;3.55;1.45;;;;;;;;;;4168918;34;20066;-79
2023/07/18 13:52:09;;;;;;;0.85;0.85;;;;;;;;;;4158473;34;20081;-80
2023/07/18 13:54:35;;;;;;;7.35;1.10;;;;;;;;;;4182794;34;20056;-80
2023/07/18 13:57:01;;;;;;;3.75;1.12;;;;;;;;;;4181080;34;20069;-80
2023/07/18 13:59:27;;;;;;;1.20;1.10;;;;;;;;;;4213363;34;20125;-79
2023/07/18 14:01:54;;;;;;;2.15;1.20;;;;;;;;;;4222130;33;20642;-81
2023/07/18 14:04:20;;;;;;;4.45;1.17;;;;;;;;;;4223805;34;20116;-80
2023/07/18 14:06:46;;;;;;;1.35;1.25;;;;;;;;;;4222941;34;20514;-79
2023/07/18 14:09:13;;;;;;;1.20;1.10;;;;;;;;;;4222998;34;20039;-82
2023/07/18 14:11:40;;;;;;;1.55;1.33;;;;;;;;;;4223513;34;20460;-81
2023/07/18 14:14:06;;;;;;;2.42;1.12;;;;;;;;;;4222502;34;20032;-80
2023/07/18 14:16:32;;;;;;;1.50;1.42;;;;;;;;;;4222065;34;20043;-79
2023/07/18 14:18:58;;;;;;;4.30;1.23;;;;;;;;;;4222879;34;20089;-80
2023/07/18 14:21:25;;;;;;;1.20;1.20;;;;;;;;;;4223021;34;20035;-82
2023/07/18 14:23:51;;;;;;;2.03;1.48;;;;;;;;;;4232389;33;20052;-81
2023/07/18 14:26:18;;;;;;;1.60;1.50;;;;;;;;;;4237693;33;20396;-80
2023/07/18 14:28:44;;;;;;;3.42;1.12;;;;;;;;;;4237356;33;20035;-80
2023/07/18 14:31:10;;;;;;;1.65;1.10;;;;;;;;;;4194306;34;20440;-80
2023/07/18 14:33:36;;;;;;;2.33;1.40;;;;;;;;;;4194894;34;20040;-81
2023/07/18 14:36:03;;;;;;;1.23;1.10;;;;;;;;;;4208105;34;20063;-80
2023/07/18 14:38:29;;;;;;;1.23;1.23;;;;;;;;;;4208812;34;20211;-81
2023/07/18 14:40:55;;;;;;;2.05;1.10;;;;;;;;;;4209169;34;20059;-81
2023/07/18 14:43:28;;;;;;;1.98;1.80;;;;;;;;;;4208418;34;20088;-81
2023/07/18 14:45:54;;;;;;;1.35;1.25;;;;;;;;;;4208366;34;20048;-80
2023/07/18 14:48:21;;;;;;;1.98;1.08;;;;;;;;;;4209146;34;20440;-81
2023/07/18 14:50:48;;;;;;;11.05;1.87;;;;;;;;;;4208516;34;20385;-80
2023/07/18 14:53:14;;;;;;;1.90;1.35;;;;;;;;;;4208714;34;20138;-80
2023/07/18 14:55:43;;;;;;;4.93;1.00;;;;;;;;;;4208523;34;20059;-80
2023/07/18 14:58:09;;;;;;;2.70;1.50;;;;;;;;;;4207147;34;20035;-80
2023/07/18 15:00:36;;;;;;;1.52;1.35;;;;;;;;;;4208908;34;20093;-79
2023/07/18 15:03:02;;;;;;;1.17;1.15;;;;;;;;;;4242548;33;20045;-79
2023/07/18 15:05:29;;;;;;;1.70;1.60;;;;;;;;;;4250677;33;20107;-80
2023/07/18 15:07:55;;;;;;;2.70;1.40;;;;;;;;;;4249647;33;20046;-81
2023/07/18 15:10:22;;;;;;;11.38;1.65;;;;;;;;;;4251173;33;20058;-80
2023/07/18 15:12:47;;;;;;;3.12;1.37;;;;;;;;;;4251346;33;20056;-79
2023/07/18 15:15:14;;;;;;;1.10;1.10;;;;;;;;;;4250769;33;20389;-80
2023/07/18 15:17:41;;;;;;;5.65;1.30;;;;;;;;;;4250146;33;20429;-81
2023/07/18 15:20:10;;;;;;;6.57;1.48;;;;;;;;;;4248123;33;20068;-81
2023/07/18 15:22:37;;;;;;;4.45;1.33;;;;;;;;;;4251368;33;20525;-80
2023/07/18 15:25:05;;;;;;;9.20;1.20;;;;;;;;;;4250999;33;20052;-81
2023/07/18 15:27:32;;;;;;;5.03;1.45;;;;;;;;;;4252525;33;20445;-81
2023/07/18 15:29:58;;;;;;;1.20;1.20;;;;;;;;;;4252666;33;20093;-81
2023/07/18 15:32:24;;;;;;;1.58;1.48;;;;;;;;;;4252188;33;20031;-81
2023/07/18 15:34:50;;;;;;;2.30;1.73;;;;;;;;;;4253281;33;20046;-81
2023/07/18 15:37:16;;;;;;;1.37;1.23;;;;;;;;;;4252681;33;20050;-81
2023/07/18 15:39:43;;;;;;;2.58;1.77;;;;;;;;;;4222699;34;20051;-80
2023/07/18 15:42:09;;;;;;;2.95;1.80;;;;;;;;;;4221062;34;20174;-81
2023/07/18 15:44:35;;;;;;;2.40;1.17;;;;;;;;;;4222807;34;20434;-80
2023/07/18 15:47:01;;;;;;;4.35;1.20;;;;;;;;;;4223247;34;20065;-80
2023/07/18 15:49:35;;;;;;;1.75;1.40;;;;;;;;;;4222877;34;20430;-81
2023/07/18 15:52:01;;;;;;;2.72;1.10;;;;;;;;;;4222414;34;20506;-81
2023/07/18 15:54:28;;;;;;;11.25;1.40;;;;;;;;;;4221551;34;20039;-79
2023/07/18 15:56:54;;;;;;;0.90;0.90;;;;;;;;;;4223111;34;20321;-79
2023/07/18 15:59:21;;;;;;;3.15;1.15;;;;;;;;;;4223160;34;20072;-79
2023/07/18 16:01:47;;;;;;;4.53;1.10;;;;;;;;;;4213238;34;20059;-80
2023/07/18 16:04:14;;;;;;;1.40;1.30;;;;;;;;;;4222571;34;20532;-80
2023/07/18 16:06:40;;;;;;;1.48;1.40;;;;;;;;;;4222122;34;20044;-81
2023/07/18 16:09:06;;;;;;;4.70;1.27;;;;;;;;;;4222979;34;20061;-78
2023/07/18 16:11:32;;;;;;;1.85;1.75;;;;;;;;;;4236010;33;20054;-80
2023/07/18 16:13:58;;;;;;;4.50;1.20;;;;;;;;;;4238598;33;20085;-79
2023/07/18 16:16:24;;;;;;;1.30;1.20;;;;;;;;;;4206198;34;20039;-80
2023/07/18 16:18:55;;;;;;;2.37;1.50;;;;;;;;;;4207067;34;20473;-80
2023/07/18 16:21:22;;;;;;;2.03;1.40;;;;;;;;;;4207787;34;20035;-80
2023/07/18 16:23:55;;;;;;;1.48;1.37;;;;;;;;;;4208325;34;20048;-80
2023/07/18 16:26:21;;;;;;;1.33;1.23;;;;;;;;;;4208782;34;20032;-80
2023/07/18 16:28:50;;;;;;;5.03;1.67;;;;;;;;;;4216728;34;20137;-80
2023/07/18 16:31:18;;;;;;;7.72;1.25;;;;;;;;;;4225054;34;20512;-79
2023/07/18 16:33:44;;;;;;;1.27;1.17;;;;;;;;;;4224101;34;20518;-79
2023/07/18 16:36:10;;;;;;;5.45;1.10;;;;;;;;;;4225092;34;20074;-79
2023/07/18 16:38:36;;;;;;;1.60;1.30;;;;;;;;;;4222197;34;20051;-80
2023/07/18 16:41:02;;;;;;;7.95;1.55;;;;;;;;;;4224974;34;20081;-79
2023/07/18 16:43:30;;;;;;;1.80;1.52;;;;;;;;;;4225286;34;20098;-78
2023/07/18 16:45:59;;;;;;;1.40;1.30;;;;;;;;;;4224122;34;20039;-80